Terminal Aerodrome Forecast
Issued by NWS

Home | Current Version | Previous Version | Graphics & Text | Print | Product List | Glossary On
Versions: 1 2 3 4 5 6 7 8 9 10 11 12 13 14 15 16
000
FTUS43 KICT 230520
TAFSLN
TAF
KSLN 230520Z 2306/2406 17009KT P6SM SKC
     FM231000 18008KT P6SM SKC WS020/21035KT
     FM231200 17010KT P6SM SKC
     FM231600 18015G25KT P6SM SKC
     FM240000 20011KT P6SM FEW090 SCT140=

USA.gov is the U.S. government's official web portal to all federal, state and local government web resources and services.